createdAt,value
2018-03-25T00:00:42.298Z,19.2
2018-03-25T00:01:42.303Z,19.06
2018-03-25T00:02:42.270Z,19.05
2018-03-25T00:03:42.279Z,19.2
2018-03-25T00:04:42.279Z,19.09
2018-03-25T00:05:42.303Z,19.05
2018-03-25T00:06:42.323Z,19.21
2018-03-25T00:07:42.282Z,19.08
2018-03-25T00:08:42.275Z,19.05
2018-03-25T00:09:42.283Z,19.2
2018-03-25T00:10:42.293Z,19.09
2018-03-25T00:11:42.313Z,19.04
2018-03-25T00:12:42.300Z,19.19
2018-03-25T00:13:42.268Z,19.03
2018-03-25T00:14:42.333Z,18.97
2018-03-25T00:15:42.282Z,19.14
2018-03-25T00:16:42.306Z,18.99
2018-03-25T00:17:42.346Z,18.97
2018-03-25T00:18:42.290Z,19.14
2018-03-25T00:19:42.281Z,18.98
2018-03-25T00:20:42.344Z,18.97
2018-03-25T00:21:42.312Z,19.13
2018-03-25T00:22:42.266Z,18.98
2018-03-25T00:23:42.318Z,18.94
2018-03-25T00:24:42.282Z,19.08
2018-03-25T00:25:42.331Z,18.97
2018-03-25T00:26:42.319Z,18.94
2018-03-25T00:27:42.625Z,19.1
2018-03-25T00:28:42.279Z,18.97
2018-03-25T00:29:42.271Z,18.97
2018-03-25T00:30:42.330Z,19.11
2018-03-25T00:31:42.558Z,18.92
2018-03-25T00:32:42.308Z,18.87
2018-03-25T00:33:42.270Z,19.06
2018-03-25T00:34:42.338Z,18.89
2018-03-25T00:35:42.295Z,18.86
2018-03-25T00:36:42.306Z,19.05
2018-03-25T00:37:42.328Z,18.93
2018-03-25T00:38:42.268Z,18.89
2018-03-25T00:39:42.266Z,19.04
2018-03-25T00:40:42.311Z,18.87
2018-03-25T00:41:42.312Z,18.88
2018-03-25T00:42:42.305Z,19.05
2018-03-25T00:43:42.273Z,18.9
2018-03-25T00:44:42.251Z,18.85
2018-03-25T00:45:42.286Z,19.03
2018-03-25T00:46:42.264Z,18.87
2018-03-25T00:47:42.315Z,18.85
2018-03-25T00:48:42.301Z,18.99
2018-03-25T00:49:42.271Z,18.85
2018-03-25T00:50:42.495Z,18.87
2018-03-25T00:51:42.260Z,19.03
2018-03-25T00:52:42.263Z,18.91
2018-03-25T00:53:42.355Z,18.87
2018-03-25T00:54:42.302Z,19.03
2018-03-25T00:55:42.285Z,18.88
2018-03-25T00:56:42.264Z,18.81
2018-03-25T00:57:42.346Z,18.98
2018-03-25T00:58:42.283Z,18.83
2018-03-25T00:59:42.270Z,18.82
2018-03-25T01:00:42.276Z,19
2018-03-25T01:01:42.536Z,18.86
2018-03-25T01:02:42.302Z,18.85
2018-03-25T01:03:42.270Z,18.98
2018-03-25T01:04:42.286Z,18.83
2018-03-25T01:05:42.271Z,18.78
2018-03-25T01:06:42.304Z,18.94
2018-03-25T01:07:42.538Z,18.79
2018-03-25T01:08:42.304Z,18.78
2018-03-25T01:09:42.260Z,18.94
2018-03-25T01:10:42.279Z,18.8
2018-03-25T01:11:42.301Z,18.75
2018-03-25T01:12:46.131Z,18.92
2018-03-25T01:13:42.296Z,18.81
2018-03-25T01:14:42.330Z,18.75
2018-03-25T01:15:42.275Z,18.9
2018-03-25T01:16:42.285Z,18.78
2018-03-25T01:17:42.276Z,18.72
2018-03-25T01:18:42.325Z,18.87
2018-03-25T01:19:42.394Z,18.74
2018-03-25T01:20:42.282Z,18.71
2018-03-25T01:21:42.337Z,18.89
2018-03-25T01:22:42.306Z,18.75
2018-03-25T01:23:42.299Z,18.75
2018-03-25T01:24:42.314Z,18.9
2018-03-25T01:25:42.264Z,18.78
2018-03-25T01:26:42.323Z,18.72
2018-03-25T01:27:42.331Z,18.89
2018-03-25T01:28:42.307Z,18.72
2018-03-25T01:29:42.310Z,18.72
2018-03-25T01:30:42.306Z,18.87
2018-03-25T01:31:42.382Z,18.75
2018-03-25T01:32:42.304Z,18.72
2018-03-25T01:33:42.265Z,18.85
2018-03-25T01:34:42.270Z,18.72
2018-03-25T01:35:42.281Z,18.68
2018-03-25T01:36:42.312Z,18.85
2018-03-25T01:37:42.302Z,18.73
2018-03-25T01:38:42.303Z,18.71
2018-03-25T01:39:42.310Z,18.86
2018-03-25T01:40:42.303Z,18.72
2018-03-25T01:41:42.297Z,18.7
2018-03-25T01:42:42.277Z,18.87
2018-03-25T01:43:42.288Z,18.7
2018-03-25T01:44:42.325Z,18.66
2018-03-25T01:45:42.291Z,18.86
2018-03-25T01:46:42.300Z,18.72
2018-03-25T01:47:42.270Z,18.66
2018-03-25T01:48:42.318Z,18.86
2018-03-25T01:49:42.443Z,18.74
2018-03-25T01:50:42.274Z,18.68
2018-03-25T01:51:42.294Z,18.83
2018-03-25T01:52:42.300Z,18.7
2018-03-25T01:53:42.277Z,18.69
2018-03-25T01:54:42.361Z,18.84
2018-03-25T01:55:42.416Z,18.66
2018-03-25T01:56:42.302Z,18.65
2018-03-25T01:57:42.277Z,18.82
2018-03-25T01:58:42.287Z,18.68
2018-03-25T01:59:42.271Z,18.62
2018-03-25T02:00:42.266Z,18.8
2018-03-25T02:01:42.302Z,18.68
2018-03-25T02:02:42.299Z,18.64
2018-03-25T02:03:42.263Z,18.82
2018-03-25T02:04:42.254Z,18.65
2018-03-25T02:05:42.267Z,18.66
2018-03-25T02:06:42.256Z,18.81
2018-03-25T02:07:42.290Z,18.68
2018-03-25T02:08:42.296Z,18.65
2018-03-25T02:09:42.300Z,18.8
2018-03-25T02:10:42.258Z,18.63
2018-03-25T02:11:42.272Z,18.61
2018-03-25T02:12:42.305Z,18.78
2018-03-25T02:13:42.292Z,18.63
2018-03-25T02:14:42.278Z,18.6
2018-03-25T02:15:42.299Z,18.76
2018-03-25T02:16:42.301Z,18.66
2018-03-25T02:17:42.291Z,18.61
2018-03-25T02:18:42.337Z,18.75
2018-03-25T02:19:42.292Z,18.61
2018-03-25T02:20:42.347Z,18.61
2018-03-25T02:21:42.256Z,18.78
2018-03-25T02:22:42.312Z,18.62
2018-03-25T02:23:42.289Z,18.59
2018-03-25T02:24:42.278Z,18.76
2018-03-25T02:25:42.291Z,18.65
2018-03-25T02:26:42.310Z,18.59
2018-03-25T02:27:42.286Z,18.75
2018-03-25T02:28:42.296Z,18.59
2018-03-25T02:29:42.263Z,18.6
2018-03-25T02:30:42.276Z,18.77
2018-03-25T02:31:42.287Z,18.6
2018-03-25T02:32:42.538Z,18.58
2018-03-25T02:33:42.323Z,18.74
2018-03-25T02:34:42.294Z,18.6
2018-03-25T02:35:42.265Z,18.57
2018-03-25T02:36:42.287Z,18.73
2018-03-25T02:37:42.293Z,18.6
2018-03-25T02:38:42.307Z,18.56
2018-03-25T02:39:42.269Z,18.72
2018-03-25T02:40:42.307Z,18.6
2018-03-25T02:41:42.297Z,18.56
2018-03-25T02:42:42.301Z,18.72
2018-03-25T02:43:42.402Z,18.56
2018-03-25T02:44:42.282Z,18.55
2018-03-25T02:45:42.278Z,18.71
2018-03-25T02:46:42.266Z,18.54
2018-03-25T02:47:42.291Z,18.52
2018-03-25T02:48:42.355Z,18.69
2018-03-25T02:49:42.326Z,18.56
2018-03-25T02:50:42.311Z,18.49
2018-03-25T02:51:42.362Z,18.66
2018-03-25T02:52:42.245Z,18.54
2018-03-25T02:53:42.354Z,18.51
2018-03-25T02:54:42.410Z,18.67
2018-03-25T02:55:42.326Z,18.51
2018-03-25T02:56:42.300Z,18.52
2018-03-25T02:57:42.278Z,18.69
2018-03-25T02:58:42.332Z,18.54
2018-03-25T02:59:42.292Z,18.49
2018-03-25T03:00:42.280Z,18.69
2018-03-25T03:01:42.291Z,18.5
2018-03-25T03:02:42.313Z,18.48
2018-03-25T03:03:42.270Z,18.65
2018-03-25T03:04:42.299Z,18.51
2018-03-25T03:05:42.290Z,18.48
2018-03-25T03:06:42.278Z,18.65
2018-03-25T03:07:42.246Z,18.5
2018-03-25T03:08:42.274Z,18.48
2018-03-25T03:09:42.258Z,18.63
2018-03-25T03:10:42.299Z,18.48
2018-03-25T03:11:42.271Z,18.47
2018-03-25T03:12:42.291Z,18.65
2018-03-25T03:13:42.256Z,18.46
2018-03-25T03:14:42.276Z,18.43
2018-03-25T03:15:42.254Z,18.6
2018-03-25T03:16:42.278Z,18.5
2018-03-25T03:17:42.254Z,18.42
2018-03-25T03:18:42.279Z,18.62
2018-03-25T03:19:42.254Z,18.49
2018-03-25T03:20:42.289Z,18.46
2018-03-25T03:21:42.271Z,18.61
2018-03-25T03:22:42.317Z,18.49
2018-03-25T03:23:42.291Z,18.48
2018-03-25T03:24:42.293Z,18.63
2018-03-25T03:25:42.228Z,18.48
2018-03-25T03:26:42.265Z,18.43
2018-03-25T03:27:42.262Z,18.6
2018-03-25T03:28:42.351Z,18.44
2018-03-25T03:29:42.237Z,18.41
2018-03-25T03:30:42.313Z,18.59
2018-03-25T03:31:42.298Z,18.46
2018-03-25T03:32:42.263Z,18.42
2018-03-25T03:33:42.257Z,18.6
2018-03-25T03:34:42.275Z,18.43
2018-03-25T03:35:42.260Z,18.38
2018-03-25T03:36:42.269Z,18.56
2018-03-25T03:37:42.228Z,18.47
2018-03-25T03:38:42.289Z,18.41
2018-03-25T03:39:42.232Z,18.57
2018-03-25T03:40:42.226Z,18.44
2018-03-25T03:41:42.240Z,18.38
2018-03-25T03:42:42.224Z,18.54
2018-03-25T03:43:42.276Z,18.42
2018-03-25T03:44:42.268Z,18.39
2018-03-25T03:45:42.229Z,18.55
2018-03-25T03:46:42.244Z,18.41
2018-03-25T03:47:42.293Z,18.41
2018-03-25T03:48:42.259Z,18.54
2018-03-25T03:49:42.265Z,18.39
2018-03-25T03:50:42.243Z,18.35
2018-03-25T03:51:42.243Z,18.56
2018-03-25T03:52:42.212Z,18.42
2018-03-25T03:53:42.338Z,18.36
2018-03-25T03:54:42.265Z,18.54
2018-03-25T03:55:42.344Z,18.39
2018-03-25T03:56:42.348Z,18.37
2018-03-25T03:57:42.268Z,18.54
2018-03-25T03:58:42.252Z,18.41
2018-03-25T03:59:42.250Z,18.4
2018-03-25T04:00:42.233Z,18.57
2018-03-25T04:01:42.188Z,18.44
2018-03-25T04:02:42.222Z,18.41
2018-03-25T04:03:42.242Z,18.57
2018-03-25T04:04:42.316Z,18.48
2018-03-25T04:05:42.256Z,18.47
2018-03-25T04:06:42.262Z,18.6
2018-03-25T04:07:42.247Z,18.52
2018-03-25T04:08:42.224Z,18.56
2018-03-25T04:09:42.277Z,18.68
2018-03-25T04:10:42.258Z,18.62
2018-03-25T04:11:42.251Z,18.6
2018-03-25T04:12:42.252Z,18.71
2018-03-25T04:13:42.260Z,18.64
2018-03-25T04:14:42.264Z,18.65
2018-03-25T04:15:42.248Z,18.78
2018-03-25T04:16:42.245Z,18.69
2018-03-25T04:17:42.234Z,18.71
2018-03-25T04:18:42.304Z,18.81
2018-03-25T04:19:42.266Z,18.77
2018-03-25T04:20:42.397Z,18.79
2018-03-25T04:21:42.271Z,18.89
2018-03-25T04:22:42.227Z,18.81
2018-03-25T04:23:42.255Z,18.85
2018-03-25T04:24:42.317Z,18.93
2018-03-25T04:25:42.270Z,18.86
2018-03-25T04:26:42.237Z,18.87
2018-03-25T04:27:42.254Z,18.97
2018-03-25T04:28:42.246Z,18.92
2018-03-25T04:29:42.227Z,18.93
2018-03-25T04:30:42.259Z,19.03
2018-03-25T04:31:42.249Z,18.98
2018-03-25T04:32:42.290Z,18.98
2018-03-25T04:33:42.231Z,19.09
2018-03-25T04:34:42.246Z,19.03
2018-03-25T04:35:42.234Z,19.04
2018-03-25T04:36:42.270Z,19.12
2018-03-25T04:37:42.258Z,19.07
2018-03-25T04:38:42.232Z,19.09
2018-03-25T04:39:42.241Z,19.17
2018-03-25T04:40:42.217Z,19.13
2018-03-25T04:41:42.239Z,19.13
2018-03-25T04:42:42.206Z,19.21
2018-03-25T04:43:42.227Z,19.14
2018-03-25T04:44:42.227Z,19.15
2018-03-25T04:45:42.232Z,19.24
2018-03-25T04:46:42.237Z,19.2
2018-03-25T04:47:42.254Z,19.2
2018-03-25T04:48:42.258Z,19.28
2018-03-25T04:49:42.271Z,19.23
2018-03-25T04:50:42.242Z,19.24
2018-03-25T04:51:42.228Z,19.32
2018-03-25T04:52:42.246Z,19.27
2018-03-25T04:53:42.203Z,19.27
2018-03-25T04:54:42.251Z,19.36
2018-03-25T04:55:42.301Z,19.29
2018-03-25T04:56:42.216Z,19.28
2018-03-25T04:57:42.205Z,19.38
2018-03-25T04:58:42.251Z,19.32
2018-03-25T04:59:42.215Z,19.35
2018-03-25T05:00:42.222Z,19.41
2018-03-25T05:01:42.257Z,19.37
2018-03-25T05:02:42.284Z,19.36
2018-03-25T05:03:42.260Z,19.46
2018-03-25T05:04:42.250Z,19.39
2018-03-25T05:05:42.224Z,19.39
2018-03-25T05:06:42.246Z,19.47
2018-03-25T05:07:42.246Z,19.4
2018-03-25T05:08:42.212Z,19.42
2018-03-25T05:09:42.234Z,19.51
2018-03-25T05:10:42.224Z,19.45
2018-03-25T05:11:42.221Z,19.45
2018-03-25T05:12:42.224Z,19.54
2018-03-25T05:13:42.244Z,19.49
2018-03-25T05:14:42.217Z,19.46
2018-03-25T05:15:42.256Z,19.56
2018-03-25T05:16:42.213Z,19.49
2018-03-25T05:17:42.236Z,19.51
2018-03-25T05:18:42.236Z,19.57
2018-03-25T05:19:42.209Z,19.51
2018-03-25T05:20:42.240Z,19.52
2018-03-25T05:21:42.239Z,19.6
2018-03-25T05:22:42.246Z,19.56
2018-03-25T05:23:42.215Z,19.55
2018-03-25T05:24:42.244Z,19.63
2018-03-25T05:25:42.248Z,19.57
2018-03-25T05:26:42.268Z,19.58
2018-03-25T05:27:42.277Z,19.65
2018-03-25T05:28:42.210Z,19.6
2018-03-25T05:29:42.201Z,19.59
2018-03-25T05:30:42.210Z,19.68
2018-03-25T05:31:42.216Z,19.63
2018-03-25T05:32:42.226Z,19.61
2018-03-25T05:33:42.226Z,19.69
2018-03-25T05:34:42.295Z,19.65
2018-03-25T05:35:42.210Z,19.64
2018-03-25T05:36:42.209Z,19.72
2018-03-25T05:37:42.211Z,19.65
2018-03-25T05:38:42.188Z,19.67
2018-03-25T05:39:42.222Z,19.75
2018-03-25T05:40:42.250Z,19.69
2018-03-25T05:41:42.202Z,19.69
2018-03-25T05:42:42.205Z,19.76
2018-03-25T05:43:42.214Z,19.7
2018-03-25T05:44:42.200Z,19.71
2018-03-25T05:45:42.219Z,19.79
2018-03-25T05:46:42.222Z,19.72
2018-03-25T05:47:42.197Z,19.73
2018-03-25T05:48:42.221Z,19.81
2018-03-25T05:49:42.231Z,19.73
2018-03-25T05:50:42.204Z,19.74
2018-03-25T05:51:42.230Z,19.81
2018-03-25T05:52:42.233Z,19.76
2018-03-25T05:53:42.207Z,19.77
2018-03-25T05:54:42.235Z,19.85
2018-03-25T05:55:42.185Z,19.76
2018-03-25T05:56:42.318Z,19.78
2018-03-25T05:57:42.335Z,19.86
2018-03-25T05:58:42.154Z,19.78
2018-03-25T05:59:42.225Z,19.79
2018-03-25T06:00:42.183Z,19.88
2018-03-25T06:01:42.235Z,19.81
2018-03-25T06:02:42.200Z,19.8
2018-03-25T06:03:42.245Z,19.88
2018-03-25T06:04:42.291Z,19.81
2018-03-25T06:05:42.203Z,19.81
2018-03-25T06:06:42.197Z,19.89
2018-03-25T06:07:42.205Z,19.81
2018-03-25T06:08:42.272Z,19.79
2018-03-25T06:09:42.222Z,19.88
2018-03-25T06:10:42.225Z,19.82
2018-03-25T06:11:42.240Z,19.82
2018-03-25T06:12:42.232Z,19.91
2018-03-25T06:13:42.216Z,19.84
2018-03-25T06:14:42.178Z,19.82
2018-03-25T06:15:42.199Z,19.93
2018-03-25T06:16:42.236Z,19.85
2018-03-25T06:17:42.161Z,19.86
2018-03-25T06:18:42.216Z,19.94
2018-03-25T06:19:42.242Z,19.87
2018-03-25T06:20:42.226Z,19.86
2018-03-25T06:21:42.211Z,19.94
2018-03-25T06:22:42.201Z,19.87
2018-03-25T06:23:42.202Z,19.87
2018-03-25T06:24:42.191Z,19.94
2018-03-25T06:25:42.169Z,19.86
2018-03-25T06:26:42.224Z,19.87
2018-03-25T06:27:42.171Z,19.94
2018-03-25T06:28:42.208Z,19.88
2018-03-25T06:29:42.253Z,19.9
2018-03-25T06:30:42.166Z,19.97
2018-03-25T06:31:42.207Z,19.89
2018-03-25T06:32:42.210Z,19.9
2018-03-25T06:33:42.169Z,20
2018-03-25T06:34:42.201Z,19.93
2018-03-25T06:35:42.200Z,19.91
2018-03-25T06:36:42.186Z,19.99
2018-03-25T06:37:42.200Z,19.92
2018-03-25T06:38:42.200Z,19.94
2018-03-25T06:39:42.239Z,20
2018-03-25T06:40:42.229Z,19.93
2018-03-25T06:41:42.181Z,19.92
2018-03-25T06:42:42.211Z,20
2018-03-25T06:43:42.197Z,19.93
2018-03-25T06:44:42.249Z,19.94
2018-03-25T06:45:42.174Z,20.02
2018-03-25T06:46:42.191Z,19.94
2018-03-25T06:47:42.207Z,19.92
2018-03-25T06:48:42.167Z,20.02
2018-03-25T06:49:42.198Z,19.94
2018-03-25T06:50:42.172Z,19.94
2018-03-25T06:51:42.214Z,20.02
2018-03-25T06:52:42.215Z,19.94
2018-03-25T06:53:42.184Z,19.95
2018-03-25T06:54:42.200Z,20.04
2018-03-25T06:55:42.198Z,19.97
2018-03-25T06:56:42.203Z,19.95
2018-03-25T06:57:42.173Z,20.06
2018-03-25T06:58:42.163Z,20
2018-03-25T06:59:42.252Z,19.99
2018-03-25T07:00:42.190Z,20.06
2018-03-25T07:01:42.159Z,20
2018-03-25T07:02:42.223Z,19.98
2018-03-25T07:03:42.204Z,20.06
2018-03-25T07:04:42.207Z,19.98
2018-03-25T07:05:42.219Z,19.98
2018-03-25T07:06:42.170Z,20.07
2018-03-25T07:07:42.196Z,19.99
2018-03-25T07:08:42.601Z,19.98
2018-03-25T07:09:42.220Z,20.08
2018-03-25T07:10:42.161Z,20.02
2018-03-25T07:11:42.213Z,20.02
2018-03-25T07:12:42.191Z,20.09
2018-03-25T07:13:42.191Z,20
2018-03-25T07:14:42.245Z,20
2018-03-25T07:15:42.221Z,20.1
2018-03-25T07:16:42.201Z,20.03
2018-03-25T07:17:42.267Z,20.03
2018-03-25T07:18:42.174Z,20.12
2018-03-25T07:19:42.148Z,20.04
2018-03-25T07:20:42.193Z,20.01
2018-03-25T07:21:42.189Z,20.12
2018-03-25T07:22:42.197Z,20.03
2018-03-25T07:23:42.185Z,20.05
2018-03-25T07:24:42.176Z,20.12
2018-03-25T07:25:42.239Z,20.06
2018-03-25T07:26:42.165Z,20.03
2018-03-25T07:27:42.210Z,20.13
2018-03-25T07:28:42.182Z,20.04
2018-03-25T07:29:42.195Z,20.06
2018-03-25T07:30:42.237Z,20.14
2018-03-25T07:31:42.203Z,20.06
2018-03-25T07:32:42.190Z,20.08
2018-03-25T07:33:42.188Z,20.16
2018-03-25T07:34:42.241Z,20.07
2018-03-25T07:35:42.167Z,20.08
2018-03-25T07:36:42.208Z,20.17
2018-03-25T07:37:42.577Z,20.09
2018-03-25T07:38:42.181Z,20.09
2018-03-25T07:39:42.150Z,20.18
2018-03-25T07:40:42.183Z,20.09
2018-03-25T07:41:42.210Z,20.12
2018-03-25T07:42:42.196Z,20.19
2018-03-25T07:43:42.168Z,20.11
2018-03-25T07:44:42.185Z,20.13
2018-03-25T07:45:42.185Z,20.19
2018-03-25T07:46:42.259Z,20.11
2018-03-25T07:47:42.168Z,20.13
2018-03-25T07:48:42.212Z,20.21
2018-03-25T07:49:42.197Z,20.13
2018-03-25T07:50:42.157Z,20.14
2018-03-25T07:51:42.173Z,20.21
2018-03-25T07:52:42.143Z,20.12
2018-03-25T07:53:42.174Z,20.13
2018-03-25T07:54:42.180Z,20.23
2018-03-25T07:55:42.177Z,20.15
2018-03-25T07:56:42.185Z,20.13
2018-03-25T07:57:42.246Z,20.23
2018-03-25T07:58:42.285Z,20.16
2018-03-25T07:59:42.165Z,20.16
2018-03-25T08:00:42.194Z,20.23
2018-03-25T08:01:42.221Z,20.16
2018-03-25T08:02:42.174Z,20.14
2018-03-25T08:03:42.147Z,20.23
2018-03-25T08:04:42.193Z,20.15
2018-03-25T08:05:42.156Z,20.14
2018-03-25T08:06:42.165Z,20.23
2018-03-25T08:07:42.182Z,20.16
2018-03-25T08:08:42.162Z,20.16
2018-03-25T08:09:42.185Z,20.24
2018-03-25T08:10:42.128Z,20.16
2018-03-25T08:11:42.162Z,20.18
2018-03-25T08:12:42.193Z,20.25
2018-03-25T08:13:42.216Z,20.19
2018-03-25T08:14:42.163Z,20.18
2018-03-25T08:15:42.126Z,20.25
2018-03-25T08:16:42.175Z,20.2
2018-03-25T08:17:42.169Z,20.18
2018-03-25T08:18:42.166Z,20.27
2018-03-25T08:19:42.174Z,20.18
2018-03-25T08:20:42.253Z,20.18
2018-03-25T08:21:42.722Z,20.27
2018-03-25T08:22:42.245Z,20.16
2018-03-25T08:23:42.283Z,20.17
2018-03-25T08:24:42.180Z,20.26
2018-03-25T08:25:42.136Z,20.17
2018-03-25T08:26:42.162Z,20.2
2018-03-25T08:27:42.125Z,20.26
2018-03-25T08:28:42.169Z,20.19
2018-03-25T08:29:42.209Z,20.18
2018-03-25T08:30:42.161Z,20.26
2018-03-25T08:31:42.197Z,20.19
2018-03-25T08:32:42.177Z,20.17
2018-03-25T08:33:42.162Z,20.25
2018-03-25T08:34:42.185Z,20.15
2018-03-25T08:35:42.242Z,20.15
2018-03-25T08:36:42.159Z,20.25
2018-03-25T08:37:42.137Z,20.18
2018-03-25T08:38:42.246Z,20.16
2018-03-25T08:39:42.160Z,20.23
2018-03-25T08:40:42.152Z,20.15
2018-03-25T08:41:42.177Z,20.16
2018-03-25T08:42:42.131Z,20.24
2018-03-25T08:43:42.147Z,20.17
2018-03-25T08:44:42.165Z,20.14
2018-03-25T08:45:42.255Z,20.17
2018-03-25T08:46:42.158Z,19.7
2018-03-25T08:47:42.177Z,19.58
2018-03-25T08:48:42.128Z,19.69
2018-03-25T08:49:42.127Z,19.36
2018-03-25T08:50:42.143Z,19.14
2018-03-25T08:51:42.168Z,19.2
2018-03-25T08:52:42.122Z,19.08
2018-03-25T08:53:42.180Z,18.85
2018-03-25T08:54:42.117Z,18.93
2018-03-25T08:55:42.350Z,18.79
2018-03-25T08:56:42.166Z,18.63
2018-03-25T08:57:42.217Z,18.76
2018-03-25T08:58:42.146Z,18.63
2018-03-25T08:59:42.162Z,18.59
2018-03-25T09:00:42.170Z,18.83
2018-03-25T09:01:42.244Z,18.84
2018-03-25T09:02:42.173Z,18.89
2018-03-25T09:03:42.145Z,19.09
2018-03-25T09:04:42.181Z,19.07
2018-03-25T09:05:42.192Z,19.08
2018-03-25T09:06:42.195Z,19.25
2018-03-25T09:07:42.178Z,19.24
2018-03-25T09:08:42.171Z,19.27
2018-03-25T09:09:42.161Z,19.39
2018-03-25T09:10:42.116Z,19.38
2018-03-25T09:11:42.203Z,19.41
2018-03-25T09:12:42.112Z,19.51
2018-03-25T09:13:42.176Z,19.45
2018-03-25T09:14:42.189Z,19.45
2018-03-25T09:15:42.159Z,19.56
2018-03-25T09:16:42.144Z,19.53
2018-03-25T09:17:42.239Z,19.55
2018-03-25T09:18:42.164Z,19.67
2018-03-25T09:19:42.153Z,19.62
2018-03-25T09:20:42.187Z,19.59
2018-03-25T09:21:42.226Z,19.71
2018-03-25T09:22:42.133Z,19.69
2018-03-25T09:23:42.223Z,19.69
2018-03-25T09:24:42.157Z,19.83
2018-03-25T09:25:42.150Z,19.77
2018-03-25T09:26:42.133Z,19.83
2018-03-25T09:27:42.165Z,19.94
2018-03-25T09:28:42.164Z,19.86
2018-03-25T09:29:42.148Z,19.89
2018-03-25T09:30:42.151Z,20.03
2018-03-25T09:31:42.144Z,19.96
2018-03-25T09:32:42.132Z,19.99
2018-03-25T09:33:42.150Z,20.1
2018-03-25T09:34:42.142Z,20.05
2018-03-25T09:35:42.143Z,20.06
2018-03-25T09:36:42.104Z,20.13
2018-03-25T09:37:42.126Z,20.06
2018-03-25T09:38:42.131Z,20.06
2018-03-25T09:39:42.102Z,20.13
2018-03-25T09:40:42.104Z,20.03
2018-03-25T09:41:42.132Z,20
2018-03-25T09:42:42.126Z,20.1
2018-03-25T09:43:42.110Z,20.07
2018-03-25T09:44:42.141Z,20.1
2018-03-25T09:45:42.132Z,20.18
2018-03-25T09:46:42.098Z,20.12
2018-03-25T09:47:42.119Z,20.13
2018-03-25T09:48:42.158Z,20.21
2018-03-25T09:49:42.141Z,20.16
2018-03-25T09:50:42.117Z,20.16
2018-03-25T09:51:42.131Z,20.24
2018-03-25T09:52:42.321Z,20.17
2018-03-25T09:53:42.135Z,20.17
2018-03-25T09:54:42.140Z,20.26
2018-03-25T09:55:42.144Z,20.2
2018-03-25T09:56:42.130Z,20.21
2018-03-25T09:57:42.089Z,20.3
2018-03-25T09:58:42.651Z,20.22
2018-03-25T09:59:42.251Z,20.24
2018-03-25T10:00:42.138Z,20.31
2018-03-25T10:01:42.179Z,20.2
2018-03-25T10:02:42.185Z,20.21
2018-03-25T10:03:42.116Z,20.31
2018-03-25T10:04:42.826Z,20.23
2018-03-25T10:05:42.134Z,20.23
2018-03-25T10:06:42.169Z,20.32
2018-03-25T10:07:42.105Z,20.27
2018-03-25T10:08:42.125Z,20.26
2018-03-25T10:09:42.161Z,20.35
2018-03-25T10:10:42.089Z,20.26
2018-03-25T10:11:42.163Z,20.29
2018-03-25T10:12:42.133Z,20.36
2018-03-25T10:13:42.149Z,20.3
2018-03-25T10:14:42.272Z,20.28
2018-03-25T10:15:42.145Z,20.38
2018-03-25T10:16:42.260Z,20.3
2018-03-25T10:17:42.136Z,20.32
2018-03-25T10:18:42.203Z,20.43
2018-03-25T10:19:00.631Z,20.45
2018-03-25T10:19:46.915Z,20.6
2018-03-25T10:20:46.910Z,20.57
2018-03-25T10:21:46.921Z,20.64
2018-03-25T10:22:46.900Z,20.75
2018-03-25T10:23:46.910Z,20.83
2018-03-25T10:24:46.924Z,20.85
2018-03-25T10:25:46.935Z,20.93
2018-03-25T10:26:46.946Z,20.9
2018-03-25T10:27:47.081Z,20.93
2018-03-25T10:28:46.895Z,20.93
2018-03-25T10:29:46.927Z,20.95
2018-03-25T10:30:46.901Z,20.95
2018-03-25T10:31:46.885Z,21.02
2018-03-25T10:32:18.793Z,21.01
2018-03-25T10:33:18.908Z,21.13
2018-03-25T10:34:18.850Z,21.08
2018-03-25T10:35:18.821Z,21.1
2018-03-25T10:36:18.902Z,21.08
2018-03-25T10:37:18.860Z,21.14
2018-03-25T10:38:18.898Z,21.16
2018-03-25T10:39:18.853Z,21.19
2018-03-25T10:40:18.860Z,21.19
2018-03-25T10:40:59.135Z,21.22
2018-03-25T10:41:59.118Z,21.26
2018-03-25T10:42:59.117Z,21.28
2018-03-25T10:43:59.118Z,21.29
2018-03-25T10:44:59.156Z,21.31
2018-03-25T10:45:59.110Z,21.31
2018-03-25T10:46:59.142Z,21.32
2018-03-25T10:47:59.099Z,21.34
2018-03-25T10:48:59.107Z,21.32
2018-03-25T10:49:59.086Z,21.31
2018-03-25T10:50:59.120Z,21.33
2018-03-25T10:51:59.109Z,21.35
2018-03-25T10:52:59.131Z,21.31
2018-03-25T10:53:59.122Z,21.4
2018-03-25T10:54:59.120Z,21.45
2018-03-25T10:55:59.152Z,21.51
2018-03-25T10:56:59.132Z,21.44
2018-03-25T10:57:59.148Z,21.46
2018-03-25T10:58:59.121Z,21.44
2018-03-25T10:59:59.145Z,21.45
2018-03-25T11:00:59.129Z,21.48
2018-03-25T11:01:59.226Z,21.48
2018-03-25T11:02:59.273Z,21.51
2018-03-25T11:03:59.153Z,21.5
2018-03-25T11:04:59.221Z,21.54
2018-03-25T11:05:59.188Z,21.58
2018-03-25T11:10:24.677Z,21.21
2018-03-25T11:11:24.659Z,21.25
2018-03-25T11:12:03.287Z,21.21
2018-03-25T11:12:41.228Z,21.21
2018-03-25T11:13:41.281Z,21
2018-03-25T11:14:41.295Z,20.88
2018-03-25T11:15:41.326Z,20.78
2018-03-25T11:16:41.237Z,20.77
2018-03-25T11:17:41.263Z,20.69
2018-03-25T11:18:41.358Z,20.65
2018-03-25T11:19:41.270Z,20.67
2018-03-25T11:20:41.305Z,20.64
2018-03-25T11:21:41.247Z,20.62
2018-03-25T11:22:41.271Z,20.63
2018-03-25T11:23:41.287Z,20.6
2018-03-25T11:24:41.564Z,20.59
2018-03-25T11:25:41.212Z,20.63
2018-03-25T11:26:41.348Z,20.61
2018-03-25T11:27:41.330Z,20.6
2018-03-25T11:28:41.221Z,20.62
2018-03-25T11:29:41.244Z,20.62
2018-03-25T11:30:41.229Z,20.6
2018-03-25T11:31:41.228Z,20.65
2018-03-25T11:32:41.244Z,20.62
2018-03-25T11:33:41.206Z,20.63
2018-03-25T11:34:41.214Z,20.65
2018-03-25T11:35:41.243Z,20.62
2018-03-25T11:36:41.295Z,20.62
2018-03-25T11:37:41.236Z,20.65
2018-03-25T11:38:41.214Z,20.63
2018-03-25T11:39:41.228Z,20.65
2018-03-25T11:40:41.204Z,20.66
2018-03-25T11:41:41.210Z,20.65
2018-03-25T11:42:41.333Z,20.63
2018-03-25T11:43:41.354Z,20.64
2018-03-25T11:44:41.163Z,20.64
2018-03-25T11:45:41.199Z,20.62
2018-03-25T11:46:41.224Z,20.65
2018-03-25T11:47:41.202Z,20.64
2018-03-25T11:48:41.197Z,20.63
2018-03-25T11:49:41.225Z,20.65
2018-03-25T11:50:41.203Z,20.64
2018-03-25T11:51:41.310Z,20.62
2018-03-25T11:52:41.262Z,20.65
2018-03-25T11:53:41.214Z,20.63
2018-03-25T11:54:41.369Z,20.62
2018-03-25T11:55:41.223Z,20.62
2018-03-25T11:56:41.196Z,20.63
2018-03-25T11:57:41.264Z,20.65
2018-03-25T11:58:41.235Z,20.66
2018-03-25T11:59:41.237Z,20.64
2018-03-25T12:00:41.222Z,20.63
2018-03-25T12:01:41.221Z,20.62
2018-03-25T12:02:41.218Z,20.63
2018-03-25T12:03:41.223Z,20.61
2018-03-25T12:04:41.236Z,20.62
2018-03-25T12:05:41.225Z,20.65
2018-03-25T12:06:41.228Z,20.61
2018-03-25T12:07:41.517Z,20.62
2018-03-25T12:08:41.208Z,20.61
2018-03-25T12:09:41.232Z,20.61
2018-03-25T12:10:41.218Z,20.62
2018-03-25T12:11:41.183Z,20.62
2018-03-25T12:12:41.307Z,20.62
2018-03-25T12:13:41.244Z,20.63
2018-03-25T12:14:41.218Z,20.61
2018-03-25T12:15:41.220Z,20.61
2018-03-25T12:16:41.261Z,20.61
2018-03-25T12:17:41.224Z,20.61
2018-03-25T12:18:41.209Z,20.59
2018-03-25T12:19:41.214Z,20.6
2018-03-25T12:20:41.212Z,20.62
2018-03-25T12:21:41.307Z,20.62
2018-03-25T12:22:41.215Z,20.6
2018-03-25T12:23:41.242Z,20.62
2018-03-25T12:24:41.347Z,20.62
2018-03-25T12:25:41.214Z,20.63
2018-03-25T12:26:41.254Z,20.65
2018-03-25T12:27:41.256Z,20.64
2018-03-25T12:28:41.216Z,20.63
2018-03-25T12:29:41.228Z,20.64
2018-03-25T12:30:41.225Z,20.63
2018-03-25T12:31:41.181Z,20.64
2018-03-25T12:32:41.231Z,20.65
2018-03-25T12:33:41.222Z,20.65
2018-03-25T12:34:41.238Z,20.65
2018-03-25T12:35:41.235Z,20.65
2018-03-25T12:36:41.209Z,20.67
2018-03-25T12:37:41.182Z,20.71
2018-03-25T12:38:41.503Z,20.69
2018-03-25T12:39:41.321Z,20.67
2018-03-25T12:40:41.221Z,20.69
2018-03-25T12:41:41.253Z,20.68
2018-03-25T12:42:41.214Z,20.68
2018-03-25T12:43:41.253Z,20.69
2018-03-25T12:44:41.508Z,20.71
2018-03-25T12:45:41.216Z,20.64
2018-03-25T12:46:41.230Z,20.69
2018-03-25T12:47:41.230Z,20.71
2018-03-25T12:48:41.234Z,20.72
2018-03-25T12:49:41.209Z,20.7
2018-03-25T12:50:41.216Z,20.59
2018-03-25T12:51:41.205Z,20.59
2018-03-25T12:52:41.245Z,20.62
2018-03-25T12:53:41.211Z,20.61
2018-03-25T12:54:41.226Z,20.59
2018-03-25T12:55:41.307Z,20.65
2018-03-25T12:56:41.275Z,20.59